Time;durP1;ratioP1;P1;durP2;ratioP2;P2;SDS_P1;SDS_P2;PMS_P1;PMS_P2;Temp;Humidity;BMP_temperature;BMP_pressure;BME280_temperature;BME280_humidity;BME280_pressure;Samples;Min_cycle;Max_cycle;Signal;HPM_P1;HPM_P2
2022/03/16 00:00:02;;;;;;;7.10;5.10;;;13.00;1.00;;;;;;5032961;28;20042;-80
2022/03/16 00:02:28;;;;;;;6.63;4.55;;;12.90;1.00;;;;;;5033068;28;20033;-80
2022/03/16 00:04:55;;;;;;;7.95;4.95;;;12.90;1.00;;;;;;5033353;28;20160;-80
2022/03/16 00:07:22;;;;;;;8.27;4.70;;;12.90;1.00;;;;;;5034050;28;20030;-80
2022/03/16 00:09:48;;;;;;;7.47;5.57;;;12.90;1.00;;;;;;5033063;28;20048;-80
2022/03/16 00:12:14;;;;;;;8.52;5.43;;;12.90;1.00;;;;;;5032881;28;20036;-80
2022/03/16 00:14:41;;;;;;;6.10;4.75;;;12.80;1.00;;;;;;5032748;28;20477;-80
2022/03/16 00:17:07;;;;;;;7.38;5.07;;;12.80;1.00;;;;;;5033039;28;20029;-80
2022/03/16 00:19:33;;;;;;;8.45;5.25;;;12.80;1.00;;;;;;5033554;28;20024;-80
2022/03/16 00:22:01;;;;;;;6.60;4.95;;;12.90;1.00;;;;;;5032670;28;20029;-80
2022/03/16 00:24:27;;;;;;;6.78;5.13;;;12.80;1.00;;;;;;5032747;28;20504;-80
2022/03/16 00:26:53;;;;;;;8.45;5.18;;;12.90;1.00;;;;;;5032649;28;20030;-80
2022/03/16 00:29:19;;;;;;;10.05;5.00;;;13.00;1.00;;;;;;5032507;28;20116;-80
2022/03/16 00:31:45;;;;;;;8.55;5.25;;;12.90;1.00;;;;;;5033597;28;20101;-80
2022/03/16 00:34:11;;;;;;;7.32;4.82;;;12.90;1.00;;;;;;5032023;28;20584;-80
2022/03/16 00:36:36;;;;;;;6.82;5.10;;;12.80;1.00;;;;;;5031939;28;20022;-80
2022/03/16 00:39:03;;;;;;;11.52;5.40;;;12.80;1.00;;;;;;5032771;28;20397;-80
2022/03/16 00:41:29;;;;;;;8.30;5.03;;;12.80;1.00;;;;;;5032302;28;20036;-80
2022/03/16 00:43:55;;;;;;;6.72;5.40;;;12.70;1.00;;;;;;5032786;28;20397;-80
2022/03/16 00:46:20;;;;;;;7.63;4.82;;;12.70;1.00;;;;;;5032170;28;20033;-80
2022/03/16 00:48:46;;;;;;;6.93;5.00;;;12.70;1.00;;;;;;5031902;28;20024;-80
2022/03/16 00:51:12;;;;;;;7.07;4.68;;;12.80;1.00;;;;;;5032133;28;20511;-80
2022/03/16 00:53:39;;;;;;;8.90;5.50;;;12.80;1.00;;;;;;5032399;28;20075;-80
2022/03/16 00:56:06;;;;;;;8.40;4.70;;;12.80;1.00;;;;;;5032226;28;20029;-80
2022/03/16 00:58:32;;;;;;;6.85;4.93;;;12.80;1.00;;;;;;5032893;28;20068;-80
2022/03/16 01:00:58;;;;;;;7.68;4.90;;;12.80;1.00;;;;;;5031874;28;20060;-80
2022/03/16 01:03:25;;;;;;;9.07;5.28;;;12.80;1.00;;;;;;5031382;28;20033;-79
2022/03/16 01:05:51;;;;;;;7.38;4.53;;;12.80;1.00;;;;;;5031791;28;20517;-80
2022/03/16 01:08:17;;;;;;;5.93;4.78;;;12.80;1.00;;;;;;5032005;28;20037;-80
2022/03/16 01:10:42;;;;;;;8.55;5.00;;;12.80;1.00;;;;;;5032338;28;20018;-80
2022/03/16 01:13:08;;;;;;;6.85;4.80;;;12.70;1.00;;;;;;5032446;28;20413;-80
2022/03/16 01:15:34;;;;;;;8.88;4.45;;;12.70;1.00;;;;;;5031474;28;20072;-80
2022/03/16 01:17:59;;;;;;;7.80;4.85;;;12.70;1.00;;;;;;5031314;28;20457;-80
2022/03/16 01:20:25;;;;;;;6.30;4.70;;;12.70;1.00;;;;;;5031792;28;20534;-80
2022/03/16 01:22:51;;;;;;;8.50;5.00;;;12.70;1.00;;;;;;5027870;28;20045;-80
2022/03/16 01:25:17;;;;;;;7.60;4.70;;;12.70;1.00;;;;;;5031806;28;20394;-80
2022/03/16 01:27:43;;;;;;;8.18;4.80;;;12.70;1.00;;;;;;5031254;28;20449;-80
2022/03/16 01:30:09;;;;;;;6.68;4.88;;;12.60;1.00;;;;;;5031458;28;20037;-80
2022/03/16 01:32:35;;;;;;;6.82;4.75;;;12.60;1.00;;;;;;5031321;28;20035;-80
2022/03/16 01:35:00;;;;;;;8.65;5.18;;;12.60;1.00;;;;;;5032305;28;20034;-80
2022/03/16 01:37:26;;;;;;;8.23;5.18;;;12.50;1.00;;;;;;5032180;28;20397;-80
2022/03/16 01:39:51;;;;;;;6.65;4.60;;;12.60;1.00;;;;;;5030945;28;20053;-80
2022/03/16 01:42:17;;;;;;;7.15;4.68;;;12.60;1.00;;;;;;5030475;28;20029;-80
2022/03/16 01:44:51;;;;;;;9.63;4.55;;;12.50;1.00;;;;;;5030828;28;20029;-80
2022/03/16 01:47:19;;;;;;;6.28;4.82;;;12.60;1.00;;;;;;5031159;28;20032;-80
2022/03/16 01:49:46;;;;;;;6.72;4.68;;;12.60;1.00;;;;;;5031643;28;20029;-80
2022/03/16 01:52:15;;;;;;;7.93;5.00;;;12.60;1.00;;;;;;5031406;28;20091;-80
2022/03/16 01:54:41;;;;;;;6.68;4.78;;;12.60;1.00;;;;;;5030767;28;20060;-80
2022/03/16 01:57:09;;;;;;;7.85;4.40;;;12.60;1.00;;;;;;5030907;28;20061;-80
2022/03/16 01:59:36;;;;;;;6.50;4.90;;;12.60;1.00;;;;;;5031153;28;20031;-80
2022/03/16 02:02:03;;;;;;;6.13;4.53;;;12.60;1.00;;;;;;5031138;28;20511;-80
2022/03/16 02:04:29;;;;;;;6.95;4.57;;;12.50;1.00;;;;;;5031556;28;20104;-79
2022/03/16 02:06:55;;;;;;;6.10;4.82;;;12.50;1.00;;;;;;5031168;28;20469;-80
2022/03/16 02:09:23;;;;;;;8.18;4.78;;;12.40;1.00;;;;;;5031084;28;20497;-80
2022/03/16 02:11:49;;;;;;;7.78;4.90;;;12.50;1.00;;;;;;5031031;28;20037;-80
2022/03/16 02:14:15;;;;;;;8.00;4.80;;;12.50;1.00;;;;;;5031007;28;20046;-80
2022/03/16 02:16:41;;;;;;;8.00;5.10;;;12.50;1.00;;;;;;5031517;28;20017;-80
2022/03/16 02:19:06;;;;;;;8.02;5.03;;;12.50;1.00;;;;;;5030925;28;20032;-80
2022/03/16 02:21:36;;;;;;;7.00;5.10;;;12.50;1.00;;;;;;5030632;28;20378;-80
2022/03/16 02:24:02;;;;;;;16.50;14.60;;;12.50;1.00;;;;;;5030856;28;20518;-80
2022/03/16 02:26:28;;;;;;;12.30;7.95;;;12.50;1.00;;;;;;5030888;28;20029;-80
2022/03/16 02:28:54;;;;;;;8.50;5.40;;;12.40;1.00;;;;;;5030882;28;20025;-79
2022/03/16 02:31:20;;;;;;;8.90;5.13;;;12.40;1.00;;;;;;5030798;28;20025;-80
2022/03/16 02:33:46;;;;;;;9.32;4.72;;;12.40;1.00;;;;;;5030507;28;20034;-80
2022/03/16 02:36:12;;;;;;;7.15;4.68;;;12.50;1.00;;;;;;5014708;28;20041;-80
2022/03/16 02:38:37;;;;;;;6.55;4.32;;;12.50;1.00;;;;;;5030576;28;20105;-80
2022/03/16 02:41:03;;;;;;;8.50;4.68;;;12.40;1.00;;;;;;5031402;28;20135;-80
2022/03/16 02:43:29;;;;;;;9.10;5.38;;;12.40;1.00;;;;;;5030619;28;20553;-80
2022/03/16 02:45:56;;;;;;;8.27;4.93;;;12.40;1.00;;;;;;5030883;28;20117;-81
2022/03/16 02:48:22;;;;;;;7.28;5.03;;;12.40;1.00;;;;;;5030418;28;20021;-80
2022/03/16 02:50:48;;;;;;;9.10;5.03;;;12.40;1.00;;;;;;5031430;28;20052;-80
2022/03/16 02:53:18;;;;;;;7.82;5.03;;;12.30;1.00;;;;;;5030430;28;20045;-80
2022/03/16 02:55:44;;;;;;;8.45;5.20;;;12.30;1.00;;;;;;5030998;28;20563;-80
2022/03/16 02:58:14;;;;;;;7.05;4.90;;;12.30;1.00;;;;;;5030047;28;20033;-80
2022/03/16 03:00:40;;;;;;;8.98;5.18;;;12.30;1.00;;;;;;5032117;28;20406;-80
2022/03/16 03:03:06;;;;;;;10.95;4.97;;;12.20;1.00;;;;;;5034272;28;20022;-80
2022/03/16 03:05:31;;;;;;;10.35;5.18;;;12.20;1.00;;;;;;5034271;28;20555;-80
2022/03/16 03:07:57;;;;;;;7.72;4.63;;;12.10;1.00;;;;;;5034455;28;20112;-80
2022/03/16 03:10:23;;;;;;;7.85;5.57;;;12.20;1.00;;;;;;5034549;28;20494;-80
2022/03/16 03:12:48;;;;;;;10.30;5.80;;;12.20;1.00;;;;;;5034315;28;20083;-80
2022/03/16 03:15:15;;;;;;;8.05;4.85;;;12.10;1.00;;;;;;5033959;28;20152;-80
2022/03/16 03:17:42;;;;;;;6.97;5.05;;;12.10;1.00;;;;;;5033820;28;20059;-80
2022/03/16 03:20:09;;;;;;;7.50;5.10;;;12.20;1.00;;;;;;5034127;28;20035;-80
2022/03/16 03:22:35;;;;;;;10.55;5.50;;;12.10;1.00;;;;;;5032120;28;20129;-80
2022/03/16 03:25:01;;;;;;;9.02;5.13;;;12.20;1.00;;;;;;5033898;28;20505;-80
2022/03/16 03:27:26;;;;;;;9.65;5.85;;;12.10;1.00;;;;;;5033346;28;20458;-80
2022/03/16 03:29:52;;;;;;;10.23;5.30;;;12.20;1.00;;;;;;5033914;28;20044;-80
2022/03/16 03:32:18;;;;;;;6.50;5.00;;;12.40;1.00;;;;;;5034103;28;20429;-81
2022/03/16 03:34:47;;;;;;;7.90;5.20;;;12.10;1.00;;;;;;5034139;28;20028;-80
2022/03/16 03:37:16;;;;;;;7.50;5.00;;;12.00;1.00;;;;;;5033473;28;20116;-79
2022/03/16 03:39:42;;;;;;;9.55;5.43;;;12.00;1.00;;;;;;5033820;28;20026;-80
2022/03/16 03:42:08;;;;;;;7.45;5.63;;;11.90;1.00;;;;;;5033089;28;20102;-80
2022/03/16 03:44:37;;;;;;;8.13;5.70;;;11.70;1.00;;;;;;5033943;28;20025;-80
2022/03/16 03:47:08;;;;;;;7.97;5.60;;;11.70;1.00;;;;;;5034398;28;20032;-80
2022/03/16 03:49:35;;;;;;;10.45;5.43;;;11.60;1.00;;;;;;5032159;28;20029;-80
2022/03/16 03:52:01;;;;;;;9.80;5.93;;;11.90;1.00;;;;;;5033247;28;20042;-80
2022/03/16 03:54:27;;;;;;;9.98;5.80;;;11.50;1.00;;;;;;5033076;28;20409;-80
2022/03/16 03:56:53;;;;;;;8.48;6.30;;;11.50;1.00;;;;;;5033248;28;20033;-80
2022/03/16 03:59:19;;;;;;;9.43;5.85;;;11.50;1.00;;;;;;5033357;28;20508;-80
2022/03/16 04:01:46;;;;;;;9.05;6.05;;;11.50;1.00;;;;;;5033664;28;20567;-80
2022/03/16 04:04:11;;;;;;;9.18;6.57;;;11.40;1.00;;;;;;5033118;28;20108;-79
2022/03/16 04:06:37;;;;;;;10.40;6.65;;;11.50;1.00;;;;;;5032933;28;20108;-80
2022/03/16 04:09:04;;;;;;;11.80;6.55;;;11.70;1.00;;;;;;5033292;28;20044;-80
2022/03/16 04:11:30;;;;;;;12.02;5.97;;;11.60;1.00;;;;;;5031204;28;20104;-80
2022/03/16 04:13:56;;;;;;;10.82;6.72;;;11.20;1.00;;;;;;5033734;28;20116;-80
2022/03/16 04:16:21;;;;;;;10.60;6.38;;;11.60;1.00;;;;;;5033145;28;20029;-80
2022/03/16 04:18:47;;;;;;;10.00;6.60;;;11.20;1.00;;;;;;5033030;28;20036;-80
2022/03/16 04:21:12;;;;;;;8.95;6.63;;;11.20;1.00;;;;;;5033366;28;20040;-80
2022/03/16 04:23:38;;;;;;;10.93;6.88;;;11.10;1.00;;;;;;5032518;28;20054;-80
2022/03/16 04:26:04;;;;;;;11.18;6.65;;;11.00;1.00;;;;;;5032705;28;20021;-80
2022/03/16 04:28:29;;;;;;;13.15;6.90;;;11.00;1.00;;;;;;5033232;28;20422;-80
2022/03/16 04:30:55;;;;;;;12.10;7.10;;;11.10;1.00;;;;;;5032947;28;20033;-80
2022/03/16 04:33:20;;;;;;;12.48;7.00;;;11.00;1.00;;;;;;5032420;28;20029;-80
2022/03/16 04:35:46;;;;;;;8.93;6.75;;;11.00;1.00;;;;;;5032625;28;20099;-80
2022/03/16 04:38:12;;;;;;;9.48;7.35;;;11.10;1.00;;;;;;5032605;28;20528;-81
2022/03/16 04:40:37;;;;;;;9.55;7.40;;;11.00;1.00;;;;;;5032968;28;20032;-79
2022/03/16 04:43:03;;;;;;;12.50;7.72;;;10.90;1.00;;;;;;5032393;28;20034;-80
2022/03/16 04:45:29;;;;;;;12.80;7.68;;;10.90;1.00;;;;;;5032205;28;20078;-80
2022/03/16 04:47:54;;;;;;;10.68;7.28;;;10.90;1.00;;;;;;5032366;28;20034;-80
2022/03/16 04:50:20;;;;;;;9.52;7.38;;;10.90;1.00;;;;;;5032210;28;20516;-80
2022/03/16 04:52:47;;;;;;;15.15;7.78;;;10.90;1.00;;;;;;5032644;28;20033;-80
2022/03/16 04:55:14;;;;;;;10.10;7.50;;;10.80;1.00;;;;;;5031744;28;20044;-80
2022/03/16 04:57:40;;;;;;;9.77;7.00;;;10.80;1.00;;;;;;5032932;28;20083;-80
2022/03/16 05:00:06;;;;;;;10.85;7.63;;;10.80;1.00;;;;;;5032015;28;20482;-80
2022/03/16 05:02:32;;;;;;;11.45;7.95;;;10.70;1.00;;;;;;5032014;28;20061;-80
2022/03/16 05:04:57;;;;;;;10.82;7.40;;;10.70;1.00;;;;;;5032192;28;20057;-80
2022/03/16 05:07:23;;;;;;;10.57;7.28;;;10.60;1.00;;;;;;5032315;28;20033;-80
2022/03/16 05:09:49;;;;;;;12.23;7.53;;;10.60;1.00;;;;;;5031748;28;20371;-80
2022/03/16 05:12:14;;;;;;;11.77;7.95;;;10.60;1.00;;;;;;5031710;28;20037;-80
2022/03/16 05:14:40;;;;;;;10.68;7.35;;;10.70;1.00;;;;;;5031841;28;20029;-80
2022/03/16 05:17:06;;;;;;;8.65;7.38;;;10.60;1.00;;;;;;5031992;28;20025;-80
2022/03/16 05:19:31;;;;;;;10.50;7.05;;;10.60;1.00;;;;;;5032462;28;20075;-80
2022/03/16 05:21:57;;;;;;;12.43;7.10;;;10.60;1.00;;;;;;5031526;28;20025;-80
2022/03/16 05:24:24;;;;;;;13.40;7.18;;;10.60;1.00;;;;;;5014783;28;20041;-80
2022/03/16 05:26:50;;;;;;;14.18;6.45;;;10.70;1.00;;;;;;5031453;28;20655;-79
2022/03/16 05:29:16;;;;;;;11.00;7.22;;;10.70;1.00;;;;;;5031610;28;20030;-80
2022/03/16 05:31:42;;;;;;;10.18;7.05;;;10.50;1.00;;;;;;5032164;28;20094;-79
2022/03/16 05:34:08;;;;;;;9.32;6.82;;;10.50;1.00;;;;;;5031817;28;20025;-80
2022/03/16 05:36:34;;;;;;;11.23;7.07;;;10.40;1.00;;;;;;5031042;28;20045;-80
2022/03/16 05:39:00;;;;;;;10.50;6.32;;;10.40;1.00;;;;;;5030267;28;20041;-80
2022/03/16 05:41:25;;;;;;;8.90;6.82;;;10.30;1.00;;;;;;5031421;28;20021;-81
2022/03/16 05:43:51;;;;;;;11.13;7.25;;;10.30;1.00;;;;;;5032097;28;20104;-80
2022/03/16 05:46:17;;;;;;;10.07;6.57;;;10.60;1.00;;;;;;5031436;28;20037;-80
2022/03/16 05:48:42;;;;;;;9.77;6.65;;;10.20;1.00;;;;;;5031080;28;20018;-80
2022/03/16 05:51:09;;;;;;;9.93;7.20;;;10.20;1.00;;;;;;5031008;28;20159;-80
2022/03/16 05:53:35;;;;;;;12.00;7.68;;;10.30;1.00;;;;;;5030725;28;20104;-80
2022/03/16 05:56:01;;;;;;;10.85;7.32;;;10.30;1.00;;;;;;5031685;28;20025;-80
2022/03/16 05:58:26;;;;;;;9.27;7.25;;;10.30;1.00;;;;;;5030537;28;20432;-80
2022/03/16 06:00:52;;;;;;;9.45;6.93;;;10.20;1.00;;;;;;5031081;28;20026;-80
2022/03/16 06:03:18;;;;;;;11.80;7.38;;;10.60;1.00;;;;;;5031151;28;20496;-79
2022/03/16 06:05:43;;;;;;;14.52;8.27;;;10.20;1.00;;;;;;5030971;28;20089;-80
2022/03/16 06:08:09;;;;;;;11.60;7.90;;;10.30;1.00;;;;;;5031027;28;20025;-81
2022/03/16 06:10:35;;;;;;;11.10;7.25;;;10.50;1.00;;;;;;5031497;28;20509;-80
2022/03/16 06:13:03;;;;;;;10.25;7.53;;;10.40;1.00;;;;;;5030820;28;20030;-80
2022/03/16 06:15:31;;;;;;;15.30;7.75;;;10.30;1.00;;;;;;5030627;28;20041;-80
2022/03/16 06:18:00;;;;;;;9.48;7.40;;;10.20;1.00;;;;;;5030807;28;20059;-80
2022/03/16 06:20:28;;;;;;;10.85;7.60;;;10.30;1.00;;;;;;5014845;28;20029;-80
2022/03/16 06:22:54;;;;;;;12.45;7.47;;;10.20;1.00;;;;;;5031101;28;20095;-82
2022/03/16 06:25:20;;;;;;;13.82;8.40;;;10.30;1.00;;;;;;5030668;28;20049;-81
2022/03/16 06:27:45;;;;;;;13.85;8.48;;;10.70;1.00;;;;;;5030655;28;20525;-83
2022/03/16 06:30:12;;;;;;;12.70;8.50;;;10.50;1.00;;;;;;5030581;28;20544;-83
2022/03/16 06:32:37;;;;;;;13.80;8.27;;;10.60;1.00;;;;;;5030881;28;20518;-82
2022/03/16 06:35:05;;;;;;;13.35;7.97;;;10.80;1.00;;;;;;5031297;28;20037;-83
2022/03/16 06:37:31;;;;;;;15.85;8.52;;;10.60;1.00;;;;;;5035003;28;20044;-82
2022/03/16 06:39:57;;;;;;;13.13;8.13;;;10.60;1.00;;;;;;5034944;28;20041;-82
2022/03/16 06:42:23;;;;;;;12.75;7.72;;;10.60;1.00;;;;;;5034899;28;20026;-81
2022/03/16 06:44:48;;;;;;;14.18;8.32;;;10.80;1.00;;;;;;5034402;28;20532;-81
2022/03/16 06:47:14;;;;;;;11.60;7.53;;;10.80;1.00;;;;;;5034651;28;20540;-82
2022/03/16 06:49:40;;;;;;;11.43;7.75;;;10.90;1.00;;;;;;5034791;28;20108;-81
2022/03/16 06:52:06;;;;;;;16.05;7.50;;;10.90;1.00;;;;;;5034321;28;20187;-82
2022/03/16 06:54:31;;;;;;;12.93;8.10;;;11.00;1.00;;;;;;5034470;28;20029;-82
2022/03/16 06:56:57;;;;;;;13.13;7.47;;;11.00;1.00;;;;;;5034382;28;20514;-82
2022/03/16 06:59:23;;;;;;;12.98;7.30;;;11.10;1.00;;;;;;5019129;28;20060;-82
2022/03/16 07:01:48;;;;;;;13.73;7.85;;;11.20;1.00;;;;;;5034617;28;20398;-82
2022/03/16 07:04:14;;;;;;;12.32;8.00;;;11.20;1.00;;;;;;5033505;28;20571;-81
2022/03/16 07:06:40;;;;;;;16.80;8.60;;;11.30;1.00;;;;;;5034113;28;20116;-82
2022/03/16 07:09:05;;;;;;;11.73;7.35;;;11.30;1.00;;;;;;5034513;28;20104;-82
2022/03/16 07:11:31;;;;;;;12.85;7.53;;;11.40;1.00;;;;;;5034088;28;20025;-82
2022/03/16 07:16:41;;;;;;;13.32;7.18;;;11.50;1.00;;;;;;5033325;28;20409;-82
2022/03/16 07:19:08;;;;;;;12.48;6.63;;;11.60;1.00;;;;;;5033561;28;20415;-82
2022/03/16 07:21:34;;;;;;;16.00;7.15;;;11.70;1.00;;;;;;5034138;28;20059;-82
2022/03/16 07:23:59;;;;;;;13.52;6.63;;;11.70;1.00;;;;;;5033890;28;20100;-82
2022/03/16 07:26:25;;;;;;;11.07;6.18;;;11.80;1.00;;;;;;5016766;28;20426;-82
2022/03/16 07:28:51;;;;;;;7.10;6.20;;;11.90;1.00;;;;;;5030075;28;20030;-82
2022/03/16 07:31:17;;;;;;;12.77;7.30;;;12.00;1.00;;;;;;5034106;28;20498;-81
2022/03/16 07:33:43;;;;;;;12.70;6.60;;;12.10;1.00;;;;;;5033865;28;20049;-82
2022/03/16 07:36:09;;;;;;;13.43;6.95;;;12.10;1.00;;;;;;5033486;28;20216;-80
2022/03/16 07:38:35;;;;;;;11.65;6.45;;;12.20;1.00;;;;;;5033445;28;20065;-81
2022/03/16 07:41:02;;;;;;;11.93;7.00;;;12.30;1.00;;;;;;5033926;28;20053;-81
2022/03/16 07:43:29;;;;;;;9.77;6.65;;;12.40;1.00;;;;;;5033327;28;20026;-82
2022/03/16 07:45:55;;;;;;;11.98;7.35;;;12.40;1.00;;;;;;5033798;28;20108;-82
2022/03/16 07:48:21;;;;;;;13.23;7.38;;;12.40;1.00;;;;;;5033295;28;20017;-82
2022/03/16 07:50:47;;;;;;;12.93;7.03;;;12.40;1.00;;;;;;5033598;28;20036;-81
2022/03/16 07:53:13;;;;;;;13.60;6.60;;;12.40;1.00;;;;;;5033776;28;20049;-82
2022/03/16 07:55:39;;;;;;;13.13;6.88;;;12.40;1.00;;;;;;5033840;28;20068;-82
2022/03/16 07:58:05;;;;;;;13.35;7.05;;;12.40;1.00;;;;;;5033100;28;20060;-82
2022/03/16 08:00:31;;;;;;;13.93;7.78;;;12.50;1.00;;;;;;5017112;28;20039;-81
2022/03/16 08:03:01;;;;;;;11.73;7.10;;;12.50;1.00;;;;;;5033140;28;20018;-82
2022/03/16 08:05:28;;;;;;;14.65;7.25;;;12.60;1.00;;;;;;5018076;28;20065;-82
2022/03/16 08:07:54;;;;;;;10.02;7.05;;;12.60;1.00;;;;;;5034328;28;20029;-81
2022/03/16 08:10:20;;;;;;;12.90;6.88;;;12.60;1.00;;;;;;5033051;28;20205;-82
2022/03/16 08:12:47;;;;;;;13.80;6.93;;;12.60;1.00;;;;;;5032751;28;20026;-82
2022/03/16 08:15:13;;;;;;;14.93;6.78;;;12.70;1.00;;;;;;5032735;28;20033;-82
2022/03/16 08:17:39;;;;;;;11.75;7.22;;;12.70;1.00;;;;;;5032604;28;20052;-81
2022/03/16 08:20:05;;;;;;;8.90;6.63;;;12.80;1.00;;;;;;5032997;28;20036;-81
2022/03/16 08:22:33;;;;;;;12.07;6.57;;;12.90;1.00;;;;;;5033380;28;20053;-82
2022/03/16 08:25:00;;;;;;;11.63;6.82;;;12.90;1.00;;;;;;5033485;28;20025;-82
2022/03/16 08:27:27;;;;;;;11.30;6.80;;;13.00;1.00;;;;;;5032613;28;20406;-82
2022/03/16 08:29:54;;;;;;;10.32;6.30;;;13.00;1.00;;;;;;5032613;28;20021;-81
2022/03/16 08:32:20;;;;;;;7.30;5.85;;;13.10;1.00;;;;;;5032801;28;20088;-82
2022/03/16 08:34:50;;;;;;;10.90;6.10;;;13.10;1.00;;;;;;5032976;28;20113;-82
2022/03/16 08:37:17;;;;;;;11.73;6.50;;;13.20;1.00;;;;;;5032397;28;20489;-82
2022/03/16 08:39:43;;;;;;;8.27;6.10;;;13.30;1.00;;;;;;5032251;28;20454;-82
2022/03/16 08:42:13;;;;;;;11.30;6.00;;;13.30;1.00;;;;;;5032492;28;20041;-82
2022/03/16 08:44:42;;;;;;;7.60;6.15;;;13.40;1.00;;;;;;5032304;28;20034;-82
2022/03/16 08:47:08;;;;;;;8.70;5.93;;;13.40;1.00;;;;;;5032674;28;20068;-82
2022/03/16 08:49:34;;;;;;;8.82;6.20;;;13.50;1.00;;;;;;5032944;28;20030;-82
2022/03/16 08:52:01;;;;;;;8.80;6.00;;;13.60;1.00;;;;;;5032208;28;20040;-82
2022/03/16 08:54:26;;;;;;;12.65;6.43;;;13.60;1.00;;;;;;5032614;28;20033;-82
2022/03/16 08:56:52;;;;;;;8.25;5.90;;;13.70;1.00;;;;;;5032496;28;20100;-82
2022/03/16 08:59:20;;;;;;;9.48;5.72;;;13.80;1.00;;;;;;5031440;28;20048;-82
2022/03/16 09:01:46;;;;;;;10.35;6.03;;;13.90;1.00;;;;;;5032415;28;20032;-82
2022/03/16 09:04:11;;;;;;;7.32;5.57;;;14.00;1.00;;;;;;5032743;28;20025;-82
2022/03/16 09:06:37;;;;;;;11.73;5.65;;;14.00;1.00;;;;;;5031904;28;20108;-82
2022/03/16 09:09:03;;;;;;;11.25;6.00;;;14.10;1.00;;;;;;5031840;28;20035;-82
2022/03/16 09:11:29;;;;;;;9.02;5.57;;;14.20;1.00;;;;;;5032060;28;20110;-82
2022/03/16 09:13:55;;;;;;;10.20;5.72;;;14.40;1.00;;;;;;5032698;28;20442;-82
2022/03/16 09:16:20;;;;;;;8.27;5.38;;;14.50;1.00;;;;;;5031470;28;20112;-81
2022/03/16 09:18:48;;;;;;;11.18;5.88;;;14.60;1.00;;;;;;5031771;28;20029;-82
2022/03/16 09:21:14;;;;;;;8.43;5.50;;;14.70;1.00;;;;;;5031661;28;20357;-82
2022/03/16 09:23:40;;;;;;;7.10;5.28;;;14.90;1.00;;;;;;5031995;28;20528;-82
2022/03/16 09:26:06;;;;;;;8.70;5.20;;;15.00;1.00;;;;;;5032150;28;20026;-82
2022/03/16 09:28:33;;;;;;;8.02;5.10;;;15.10;1.00;;;;;;5031604;28;20022;-82
2022/03/16 09:30:58;;;;;;;8.30;5.07;;;15.10;1.00;;;;;;5031979;28;20079;-82
2022/03/16 09:33:24;;;;;;;8.75;5.07;;;15.00;1.00;;;;;;5031420;28;20025;-82
2022/03/16 09:35:51;;;;;;;9.05;5.25;;;15.00;1.00;;;;;;5031543;28;20473;-81
2022/03/16 09:38:18;;;;;;;9.75;4.95;;;14.90;1.00;;;;;;5031576;28;20065;-82
2022/03/16 09:40:44;;;;;;;8.52;4.70;;;14.90;1.00;;;;;;5032640;28;20045;-82
2022/03/16 09:43:15;;;;;;;8.45;4.43;;;14.90;1.00;;;;;;5031213;28;20486;-82
2022/03/16 09:45:56;;;;;;;7.63;4.68;;;14.90;1.00;;;;;;5030994;28;20024;-82
2022/03/16 09:48:26;;;;;;;9.05;4.40;;;15.00;1.00;;;;;;5030933;28;20539;-82
2022/03/16 09:50:53;;;;;;;6.15;4.57;;;14.90;1.00;;;;;;5031481;28;20028;-82
2022/03/16 09:53:20;;;;;;;9.70;4.30;;;15.00;1.00;;;;;;5031356;28;20087;-82
2022/03/16 09:55:46;;;;;;;11.60;4.57;;;15.10;1.00;;;;;;5031772;28;20048;-82
2022/03/16 09:58:12;;;;;;;7.30;4.13;;;15.00;1.00;;;;;;5030559;28;20075;-82
2022/03/16 10:00:38;;;;;;;7.45;4.22;;;15.10;1.00;;;;;;5030913;28;20026;-81
2022/03/16 10:03:04;;;;;;;7.65;4.32;;;15.10;1.00;;;;;;5031132;28;20117;-82
2022/03/16 10:05:31;;;;;;;7.60;4.53;;;15.10;1.00;;;;;;5031628;28;20124;-82
2022/03/16 10:08:02;;;;;;;7.35;4.25;;;15.20;1.00;;;;;;5031415;28;20521;-82
2022/03/16 10:13:24;;;;;;;8.05;4.15;;;15.30;1.00;;;;;;5031480;28;20072;-82
2022/03/16 10:15:51;;;;;;;9.50;4.72;;;15.30;1.00;;;;;;5030608;28;20087;-82
2022/03/16 10:18:21;;;;;;;7.95;4.45;;;15.40;1.00;;;;;;5031059;28;20031;-82
2022/03/16 10:20:47;;;;;;;7.45;4.30;;;15.50;1.00;;;;;;5031102;28;20044;-82
2022/03/16 10:23:14;;;;;;;7.05;4.03;;;15.70;1.00;;;;;;5030579;28;20041;-82
2022/03/16 10:25:45;;;;;;;7.70;4.70;;;15.70;1.00;;;;;;5032112;28;20509;-82
2022/03/16 10:28:20;;;;;;;9.13;4.30;;;15.90;1.00;;;;;;5030341;28;20108;-82
2022/03/16 10:31:02;;;;;;;8.70;3.80;;;16.00;1.00;;;;;;5030974;28;20079;-82
2022/03/16 10:33:44;;;;;;;8.20;3.90;;;16.00;1.00;;;;;;5030973;28;20494;-82
2022/03/16 10:36:15;;;;;;;8.30;3.97;;;16.00;1.00;;;;;;5030840;28;20088;-82
2022/03/16 10:38:50;;;;;;;7.50;3.75;;;16.10;1.00;;;;;;5014218;28;20032;-82
2022/03/16 10:47:16;;;;;;;6.40;3.78;;;16.40;1.00;;;;;;5028224;28;20028;-82
2022/03/16 10:49:43;;;;;;;8.52;3.78;;;16.50;1.00;;;;;;5029747;28;20037;-82
2022/03/16 10:52:14;;;;;;;6.78;3.70;;;16.60;1.00;;;;;;5030297;28;20029;-82
2022/03/16 10:54:40;;;;;;;6.18;3.40;;;16.80;1.00;;;;;;5030212;28;20036;-82
2022/03/16 10:57:10;;;;;;;7.05;3.80;;;17.20;1.00;;;;;;5030514;28;20029;-80
2022/03/16 10:59:37;;;;;;;6.40;3.50;;;17.00;1.00;;;;;;5030654;28;20032;-80
2022/03/16 11:02:06;;;;;;;5.30;3.47;;;17.10;1.00;;;;;;5030423;28;20179;-80
2022/03/16 11:04:33;;;;;;;5.72;3.80;;;17.20;1.00;;;;;;5031343;28;20398;-80
2022/03/16 11:07:01;;;;;;;5.97;3.60;;;17.10;1.00;;;;;;5030067;28;20104;-80
2022/03/16 11:09:27;;;;;;;6.50;3.35;;;17.10;1.00;;;;;;5030589;28;20025;-80
2022/03/16 11:14:40;;;;;;;7.47;3.75;;;18.00;1.00;;;;;;5016912;28;20036;-80
2022/03/16 11:17:06;;;;;;;11.10;3.70;;;18.10;1.00;;;;;;5030716;28;20101;-80
2022/03/16 11:19:34;;;;;;;5.43;3.25;;;18.00;1.00;;;;;;5030712;28;20064;-79
2022/03/16 11:22:19;;;;;;;5.90;3.45;;;17.80;1.00;;;;;;5032598;28;20171;-80
2022/03/16 11:24:50;;;;;;;6.93;3.55;;;17.50;1.00;;;;;;5033946;28;20037;-80
2022/03/16 11:27:48;;;;;;;6.80;3.60;;;17.70;1.00;;;;;;5033844;28;20049;-80
2022/03/16 11:30:33;;;;;;;6.50;3.33;;;17.70;1.00;;;;;;5034113;28;20025;-79
2022/03/16 11:33:15;;;;;;;5.53;3.45;;;17.80;1.00;;;;;;5033986;28;20247;-80
2022/03/16 11:35:44;;;;;;;6.90;3.63;;;17.90;1.00;;;;;;5019897;28;20490;-80
2022/03/16 11:38:15;;;;;;;5.40;3.28;;;18.10;1.00;;;;;;5034048;28;20390;-80
2022/03/16 11:40:43;;;;;;;8.73;3.40;;;18.40;1.00;;;;;;5032119;28;20033;-80
2022/03/16 11:43:11;;;;;;;5.93;3.00;;;18.30;1.00;;;;;;5034077;28;20444;-80
2022/03/16 11:45:44;;;;;;;11.75;3.42;;;18.20;1.00;;;;;;5033161;28;20497;-80
2022/03/16 11:48:37;;;;;;;5.85;3.00;;;18.20;1.00;;;;;;5033412;28;20528;-80
2022/03/16 11:51:08;;;;;;;5.68;3.20;;;18.20;1.00;;;;;;5032755;28;20428;-80
2022/03/16 11:53:46;;;;;;;5.43;3.22;;;17.90;1.00;;;;;;5034024;28;20040;-79
2022/03/16 11:56:22;;;;;;;6.45;3.38;;;17.80;1.00;;;;;;5032841;28;20040;-80
2022/03/16 11:59:02;;;;;;;7.75;3.63;;;18.00;1.00;;;;;;5034435;28;20034;-80
2022/03/16 12:01:38;;;;;;;6.15;3.58;;;18.10;1.00;;;;;;5033820;28;20038;-80
2022/03/16 12:04:22;;;;;;;5.15;3.67;;;18.30;1.00;;;;;;5032923;28;20018;-80
2022/03/16 12:07:04;;;;;;;6.15;3.50;;;18.10;1.00;;;;;;5033364;28;20109;-80
2022/03/16 12:09:46;;;;;;;3.35;3.03;;;18.30;1.00;;;;;;5033152;28;20036;-80
2022/03/16 12:15:09;;;;;;;4.53;3.70;;;19.00;1.00;;;;;;5033000;28;20464;-80
2022/03/16 12:17:35;;;;;;;6.18;3.35;;;19.00;1.00;;;;;;5003109;28;20545;-80
2022/03/16 12:20:11;;;;;;;7.75;3.50;;;18.80;1.00;;;;;;5032982;28;20116;-79
2022/03/16 12:22:39;;;;;;;5.30;3.83;;;18.90;1.00;;;;;;5032975;28;20033;-80
2022/03/16 12:25:35;;;;;;;8.38;3.67;;;18.80;1.00;;;;;;5032599;28;20029;-80
2022/03/16 12:31:00;;;;;;;5.80;3.55;;;18.90;1.00;;;;;;5033536;28;20047;-79
2022/03/16 12:33:28;;;;;;;6.22;3.42;;;18.80;1.00;;;;;;5031280;28;20079;-80
2022/03/16 12:35:58;;;;;;;5.75;3.50;;;18.90;1.00;;;;;;5032632;28;20037;-80
2022/03/16 12:38:26;;;;;;;7.45;3.30;;;18.70;1.00;;;;;;5032192;28;20042;-80
2022/03/16 12:43:38;;;;;;;6.28;3.08;;;18.50;1.00;;;;;;5031087;28;20092;-80
2022/03/16 12:46:16;;;;;;;8.30;3.65;;;18.30;1.00;;;;;;5032722;28;20031;-80
2022/03/16 12:48:48;;;;;;;6.55;3.42;;;18.10;1.00;;;;;;5032335;28;20029;-80
2022/03/16 12:51:18;;;;;;;5.38;3.83;;;18.30;1.00;;;;;;5032081;28;20489;-79
2022/03/16 12:53:46;;;;;;;6.40;3.47;;;18.30;1.00;;;;;;5032346;28;20029;-80
2022/03/16 12:56:16;;;;;;;5.22;3.75;;;18.20;1.00;;;;;;5032176;28;20049;-80
2022/03/16 12:58:50;;;;;;;4.30;3.25;;;18.30;1.00;;;;;;5033018;28;20041;-80
2022/03/16 13:01:17;;;;;;;4.60;3.35;;;18.20;1.00;;;;;;5032479;28;20113;-80
2022/03/16 13:03:43;;;;;;;6.10;3.13;;;18.10;1.00;;;;;;5031705;28;20033;-80
2022/03/16 13:06:20;;;;;;;6.95;3.50;;;18.10;1.00;;;;;;5032295;28;20064;-80
2022/03/16 13:08:52;;;;;;;5.88;3.65;;;18.30;1.00;;;;;;5031537;28;20542;-79
2022/03/16 13:11:25;;;;;;;7.38;4.05;;;18.50;1.00;;;;;;5031926;28;20121;-80
2022/03/16 13:14:18;;;;;;;6.93;3.70;;;18.50;1.00;;;;;;5032369;28;20026;-80
2022/03/16 13:16:55;;;;;;;5.22;3.40;;;18.40;1.00;;;;;;5027614;28;20073;-80